createdAt,value
2024-03-08T00:00:15.960Z,534.00
2024-03-08T00:01:14.354Z,530.00
2024-03-08T00:02:14.464Z,527.00
2024-03-08T00:03:14.448Z,526.00
2024-03-08T00:04:14.361Z,525.00
2024-03-08T00:05:14.323Z,526.00
2024-03-08T00:06:14.410Z,527.00
2024-03-08T00:07:14.318Z,526.00
2024-03-08T00:08:14.332Z,526.00
2024-03-08T00:09:14.354Z,525.00
2024-03-08T00:10:15.604Z,524.00
2024-03-08T00:11:14.340Z,524.00
2024-03-08T00:12:14.408Z,525.00
2024-03-08T00:13:14.325Z,524.00
2024-03-08T00:14:14.327Z,522.00
2024-03-08T00:15:14.363Z,524.00
2024-03-08T00:16:14.310Z,524.00
2024-03-08T00:17:14.296Z,523.00
2024-03-08T00:18:14.360Z,520.00
2024-03-08T00:19:14.298Z,522.00
2024-03-08T00:20:14.475Z,519.00
2024-03-08T00:21:14.290Z,520.00
2024-03-08T00:22:14.310Z,519.00
2024-03-08T00:23:14.272Z,519.00
2024-03-08T00:24:14.300Z,520.00
2024-03-08T00:25:14.298Z,522.00
2024-03-08T00:26:14.264Z,519.00
2024-03-08T00:27:14.321Z,518.00
2024-03-08T00:28:14.260Z,516.00
2024-03-08T00:29:14.253Z,515.00
2024-03-08T00:30:14.462Z,513.00
2024-03-08T00:31:14.257Z,512.00
2024-03-08T00:32:14.249Z,514.00
2024-03-08T00:33:14.318Z,516.00
2024-03-08T00:34:14.266Z,514.00
2024-03-08T00:35:14.300Z,515.00
2024-03-08T00:36:14.282Z,516.00
2024-03-08T00:37:14.273Z,516.00
2024-03-08T00:38:14.280Z,517.00
2024-03-08T00:39:14.299Z,518.00
2024-03-08T00:40:14.258Z,516.00
2024-03-08T00:41:14.287Z,516.00
2024-03-08T00:42:14.332Z,516.00
2024-03-08T00:43:14.322Z,516.00
2024-03-08T00:44:14.350Z,516.00
2024-03-08T00:45:14.499Z,516.00
2024-03-08T00:46:14.383Z,513.00
2024-03-08T00:47:14.426Z,512.00
2024-03-08T00:48:14.545Z,512.00
2024-03-08T00:49:14.430Z,512.00
2024-03-08T00:50:14.410Z,511.00
2024-03-08T00:51:14.416Z,514.00
2024-03-08T00:52:14.390Z,514.00
2024-03-08T00:53:14.368Z,509.00
2024-03-08T00:54:14.429Z,512.00
2024-03-08T00:55:14.366Z,514.00
2024-03-08T00:56:14.362Z,517.00
2024-03-08T00:57:14.413Z,515.00
2024-03-08T00:58:14.348Z,514.00
2024-03-08T00:59:14.338Z,511.00
2024-03-08T01:00:14.435Z,511.00
2024-03-08T01:01:14.360Z,515.00
2024-03-08T01:02:14.320Z,517.00
2024-03-08T01:03:14.374Z,517.00
2024-03-08T01:04:14.289Z,521.00
2024-03-08T01:05:14.319Z,522.00
2024-03-08T01:06:14.297Z,521.00
2024-03-08T01:07:14.265Z,522.00
2024-03-08T01:08:14.255Z,519.00
2024-03-08T01:09:14.304Z,516.00
2024-03-08T01:10:14.272Z,515.00
2024-03-08T01:11:14.282Z,513.00
2024-03-08T01:12:14.253Z,515.00
2024-03-08T01:13:14.191Z,517.00
2024-03-08T01:14:14.192Z,515.00
2024-03-08T01:15:14.265Z,515.00
2024-03-08T01:16:16.901Z,514.00
2024-03-08T01:17:14.267Z,513.00
2024-03-08T01:18:14.303Z,514.00
2024-03-08T01:19:14.236Z,513.00
2024-03-08T01:20:14.213Z,515.00
2024-03-08T01:21:14.238Z,516.00
2024-03-08T01:22:14.218Z,512.00
2024-03-08T01:23:14.207Z,515.00
2024-03-08T01:24:14.236Z,514.00
2024-03-08T01:25:14.187Z,511.00
2024-03-08T01:26:14.194Z,513.00
2024-03-08T01:27:14.270Z,514.00
2024-03-08T01:28:14.162Z,514.00
2024-03-08T01:29:14.156Z,515.00
2024-03-08T01:30:14.229Z,516.00
2024-03-08T01:31:14.155Z,515.00
2024-03-08T01:32:14.134Z,517.00
2024-03-08T01:33:14.211Z,517.00
2024-03-08T01:34:14.158Z,515.00
2024-03-08T01:35:14.127Z,516.00
2024-03-08T01:36:14.155Z,514.00
2024-03-08T01:37:14.120Z,514.00
2024-03-08T01:38:14.110Z,514.00
2024-03-08T01:39:14.318Z,513.00
2024-03-08T01:40:14.105Z,514.00
2024-03-08T01:41:14.118Z,515.00
2024-03-08T01:42:14.204Z,516.00
2024-03-08T01:43:14.099Z,514.00
2024-03-08T01:44:14.099Z,513.00
2024-03-08T01:45:14.151Z,513.00
2024-03-08T01:46:14.097Z,513.00
2024-03-08T01:47:14.089Z,513.00
2024-03-08T01:48:14.145Z,511.00
2024-03-08T01:49:14.085Z,509.00
2024-03-08T01:50:14.083Z,510.00
2024-03-08T01:51:14.165Z,512.00
2024-03-08T01:52:14.070Z,511.00
2024-03-08T01:53:14.080Z,512.00
2024-03-08T01:54:14.093Z,513.00
2024-03-08T01:55:14.067Z,512.00
2024-03-08T01:56:14.067Z,508.00
2024-03-08T01:57:14.171Z,505.00
2024-03-08T01:58:14.079Z,507.00
2024-03-08T01:59:14.058Z,507.00
2024-03-08T02:00:14.216Z,505.00
2024-03-08T02:01:14.075Z,504.00
2024-03-08T02:02:14.039Z,503.00
2024-03-08T02:03:14.087Z,505.00
2024-03-08T02:04:14.028Z,509.00
2024-03-08T02:05:14.031Z,507.00
2024-03-08T02:06:14.080Z,508.00
2024-03-08T02:07:14.032Z,507.00
2024-03-08T02:08:14.017Z,507.00
2024-03-08T02:09:14.117Z,507.00
2024-03-08T02:10:14.083Z,507.00
2024-03-08T02:11:14.079Z,506.00
2024-03-08T02:12:14.004Z,508.00
2024-03-08T02:13:14.018Z,510.00
2024-03-08T02:14:14.016Z,509.00
2024-03-08T02:15:14.040Z,510.00
2024-03-08T02:16:13.989Z,507.00
2024-03-08T02:17:13.988Z,506.00
2024-03-08T02:18:14.010Z,504.00
2024-03-08T02:19:13.979Z,501.00
2024-03-08T02:20:13.965Z,502.00
2024-03-08T02:21:14.010Z,505.00
2024-03-08T02:22:13.963Z,505.00
2024-03-08T02:23:13.995Z,507.00
2024-03-08T02:24:14.032Z,508.00
2024-03-08T02:25:14.038Z,509.00
2024-03-08T02:26:14.043Z,508.00
2024-03-08T02:27:14.239Z,505.00
2024-03-08T02:28:14.072Z,505.00
2024-03-08T02:29:14.093Z,504.00
2024-03-08T02:30:14.279Z,505.00
2024-03-08T02:31:14.174Z,505.00
2024-03-08T02:32:14.149Z,504.00
2024-03-08T02:33:14.261Z,505.00
2024-03-08T02:34:14.177Z,503.00
2024-03-08T02:35:14.202Z,503.00
2024-03-08T02:36:14.274Z,503.00
2024-03-08T02:37:14.233Z,503.00
2024-03-08T02:38:14.246Z,502.00
2024-03-08T02:39:14.299Z,499.00
2024-03-08T02:40:14.296Z,501.00
2024-03-08T02:41:14.311Z,502.00
2024-03-08T02:42:14.351Z,505.00
2024-03-08T02:43:14.342Z,504.00
2024-03-08T02:44:14.364Z,502.00
2024-03-08T02:45:14.463Z,502.00
2024-03-08T02:46:14.434Z,503.00
2024-03-08T02:47:14.440Z,506.00
2024-03-08T02:48:14.595Z,504.00
2024-03-08T02:49:14.488Z,503.00
2024-03-08T02:50:14.503Z,502.00
2024-03-08T02:51:14.631Z,500.00
2024-03-08T02:52:14.551Z,498.00
2024-03-08T02:53:14.603Z,499.00
2024-03-08T02:54:14.616Z,499.00
2024-03-08T02:55:14.614Z,501.00
2024-03-08T02:56:14.627Z,500.00
2024-03-08T02:57:14.673Z,502.00
2024-03-08T02:58:14.679Z,502.00
2024-03-08T02:59:14.698Z,502.00
2024-03-08T03:00:14.754Z,503.00
2024-03-08T03:01:14.760Z,503.00
2024-03-08T03:02:14.775Z,501.00
2024-03-08T03:03:14.871Z,500.00
2024-03-08T03:04:14.813Z,501.00
2024-03-08T03:05:14.842Z,500.00
2024-03-08T03:06:14.867Z,499.00
2024-03-08T03:07:14.883Z,498.00
2024-03-08T03:08:14.900Z,498.00
2024-03-08T03:09:14.976Z,494.00
2024-03-08T03:10:14.950Z,494.00
2024-03-08T03:11:15.054Z,495.00
2024-03-08T03:12:15.092Z,494.00
2024-03-08T03:13:15.038Z,495.00
2024-03-08T03:14:15.057Z,497.00
2024-03-08T03:16:15.096Z,499.00
2024-03-08T03:17:15.125Z,498.00
2024-03-08T03:18:15.262Z,496.00
2024-03-08T03:19:15.182Z,494.00
2024-03-08T03:20:15.191Z,495.00
2024-03-08T03:21:15.235Z,493.00
2024-03-08T03:22:15.239Z,493.00
2024-03-08T03:23:16.034Z,493.00
2024-03-08T03:24:15.305Z,494.00
2024-03-08T03:25:15.339Z,489.00
2024-03-08T03:26:15.337Z,492.00
2024-03-08T03:27:15.411Z,492.00
2024-03-08T03:28:15.375Z,492.00
2024-03-08T03:29:15.395Z,492.00
2024-03-08T03:30:15.471Z,491.00
2024-03-08T03:31:15.585Z,494.00
2024-03-08T03:32:15.461Z,496.00
2024-03-08T03:33:15.531Z,496.00
2024-03-08T03:34:15.535Z,496.00
2024-03-08T03:35:15.541Z,494.00
2024-03-08T03:36:15.615Z,494.00
2024-03-08T03:37:15.553Z,494.00
2024-03-08T03:38:15.889Z,492.00
2024-03-08T03:39:15.602Z,493.00
2024-03-08T03:40:15.583Z,495.00
2024-03-08T03:41:15.653Z,495.00
2024-03-08T03:42:15.606Z,497.00
2024-03-08T03:43:15.552Z,495.00
2024-03-08T03:44:15.549Z,494.00
2024-03-08T03:45:15.617Z,495.00
2024-03-08T03:46:15.528Z,497.00
2024-03-08T03:47:15.523Z,498.00
2024-03-08T03:48:15.601Z,498.00
2024-03-08T03:49:15.500Z,497.00
2024-03-08T03:50:15.510Z,496.00
2024-03-08T03:51:15.565Z,496.00
2024-03-08T03:52:15.475Z,493.00
2024-03-08T03:53:15.475Z,496.00
2024-03-08T03:54:15.578Z,496.00
2024-03-08T03:55:15.474Z,496.00
2024-03-08T03:56:15.470Z,497.00
2024-03-08T03:57:15.514Z,495.00
2024-03-08T03:58:15.469Z,494.00
2024-03-08T03:59:15.450Z,494.00
2024-03-08T04:00:15.491Z,495.00
2024-03-08T04:01:15.475Z,496.00
2024-03-08T04:02:15.424Z,496.00
2024-03-08T04:03:15.454Z,496.00
2024-03-08T04:04:15.427Z,498.00
2024-03-08T04:05:15.399Z,498.00
2024-03-08T04:06:15.542Z,498.00
2024-03-08T04:07:15.395Z,499.00
2024-03-08T04:08:15.401Z,498.00
2024-03-08T04:09:15.457Z,498.00
2024-03-08T04:10:15.470Z,499.00
2024-03-08T04:11:15.508Z,498.00
2024-03-08T04:12:15.561Z,499.00
2024-03-08T04:13:15.546Z,501.00
2024-03-08T04:14:15.554Z,501.00
2024-03-08T04:15:15.613Z,499.00
2024-03-08T04:16:15.615Z,500.00
2024-03-08T04:17:15.625Z,498.00
2024-03-08T04:18:15.721Z,499.00
2024-03-08T04:19:15.687Z,501.00
2024-03-08T04:20:16.102Z,503.00
2024-03-08T04:21:15.807Z,505.00
2024-03-08T04:22:15.783Z,504.00
2024-03-08T04:23:15.806Z,503.00
2024-03-08T04:24:15.899Z,499.00
2024-03-08T04:25:23.081Z,507.00
2024-03-08T04:26:23.106Z,504.00
2024-03-08T04:27:23.081Z,503.00
2024-03-08T04:28:23.086Z,502.00
2024-03-08T04:29:23.127Z,502.00
2024-03-08T04:30:23.179Z,499.00
2024-03-08T04:31:30.385Z,508.00
2024-03-08T04:32:30.471Z,503.00
2024-03-08T04:33:30.456Z,499.00
2024-03-08T04:34:30.381Z,503.00
2024-03-08T04:35:30.443Z,504.00
2024-03-08T04:36:30.388Z,504.00
2024-03-08T04:37:30.436Z,504.00
2024-03-08T04:38:30.409Z,505.00
2024-03-08T04:39:30.380Z,505.00
2024-03-08T04:40:30.356Z,505.00
2024-03-08T04:41:30.392Z,503.00
2024-03-08T04:42:30.376Z,504.00
2024-03-08T04:43:30.383Z,505.00
2024-03-08T04:44:30.402Z,504.00
2024-03-08T04:45:30.392Z,501.00
2024-03-08T04:46:30.406Z,498.00
2024-03-08T04:47:30.504Z,496.00
2024-03-08T04:48:30.571Z,500.00
2024-03-08T04:49:30.440Z,497.00
2024-03-08T04:50:30.655Z,495.00
2024-03-08T04:51:30.430Z,496.00
2024-03-08T04:52:30.434Z,494.00
2024-03-08T04:53:30.497Z,496.00
2024-03-08T04:54:30.450Z,499.00
2024-03-08T04:55:30.435Z,499.00
2024-03-08T04:56:30.448Z,501.00
2024-03-08T04:57:30.433Z,496.00
2024-03-08T04:58:30.418Z,495.00
2024-03-08T04:59:30.434Z,495.00
2024-03-08T05:00:30.489Z,496.00
2024-03-08T05:01:30.434Z,497.00
2024-03-08T05:02:30.435Z,496.00
2024-03-08T05:03:30.401Z,494.00
2024-03-08T05:04:30.396Z,497.00
2024-03-08T05:05:30.415Z,496.00
2024-03-08T05:06:30.395Z,493.00
2024-03-08T05:07:30.387Z,495.00
2024-03-08T05:08:30.441Z,496.00
2024-03-08T05:09:30.451Z,497.00
2024-03-08T05:10:30.363Z,499.00
2024-03-08T05:11:30.428Z,500.00
2024-03-08T05:12:30.369Z,501.00
2024-03-08T05:13:30.361Z,501.00
2024-03-08T05:14:30.383Z,501.00
2024-03-08T05:15:30.376Z,502.00
2024-03-08T05:16:30.378Z,503.00
2024-03-08T05:17:30.447Z,504.00
2024-03-08T05:18:30.496Z,504.00
2024-03-08T05:19:31.678Z,504.00
2024-03-08T05:20:30.413Z,503.00
2024-03-08T05:21:30.387Z,506.00
2024-03-08T05:22:30.404Z,507.00
2024-03-08T05:23:30.539Z,506.00
2024-03-08T05:24:30.409Z,505.00
2024-03-08T05:25:30.414Z,503.00
2024-03-08T05:26:30.455Z,501.00
2024-03-08T05:27:30.421Z,503.00
2024-03-08T05:28:30.407Z,502.00
2024-03-08T05:30:30.401Z,499.00
2024-03-08T05:31:30.383Z,498.00
2024-03-08T05:32:31.971Z,497.00
2024-03-08T05:33:30.471Z,496.00
2024-03-08T05:34:30.393Z,494.00
2024-03-08T05:35:30.411Z,496.00
2024-03-08T05:36:30.400Z,496.00
2024-03-08T05:37:30.418Z,495.00
2024-03-08T05:38:30.420Z,494.00
2024-03-08T05:39:30.404Z,493.00
2024-03-08T05:40:30.433Z,493.00
2024-03-08T05:41:30.461Z,493.00
2024-03-08T05:42:30.447Z,494.00
2024-03-08T05:43:30.460Z,493.00
2024-03-08T05:44:30.489Z,495.00
2024-03-08T05:45:30.463Z,496.00
2024-03-08T05:46:30.469Z,493.00
2024-03-08T05:47:31.822Z,492.00
2024-03-08T05:48:30.519Z,491.00
2024-03-08T05:49:30.458Z,492.00
2024-03-08T05:50:30.455Z,494.00
2024-03-08T05:51:30.459Z,495.00
2024-03-08T05:52:30.495Z,494.00
2024-03-08T05:53:30.532Z,495.00
2024-03-08T05:54:30.525Z,495.00
2024-03-08T05:55:30.495Z,495.00
2024-03-08T05:56:30.508Z,496.00
2024-03-08T05:57:30.504Z,497.00
2024-03-08T05:58:30.507Z,497.00
2024-03-08T05:59:30.543Z,496.00
2024-03-08T06:00:30.521Z,495.00
2024-03-08T06:01:30.523Z,493.00
2024-03-08T06:02:30.536Z,494.00
2024-03-08T06:03:30.526Z,496.00
2024-03-08T06:04:30.552Z,496.00
2024-03-08T06:05:30.559Z,494.00
2024-03-08T06:06:30.551Z,494.00
2024-03-08T06:07:30.570Z,497.00
2024-03-08T06:08:30.600Z,496.00
2024-03-08T06:09:30.624Z,495.00
2024-03-08T06:10:30.616Z,494.00
2024-03-08T06:11:30.681Z,494.00
2024-03-08T06:12:30.665Z,492.00
2024-03-08T06:13:30.894Z,493.00
2024-03-08T06:14:30.704Z,491.00
2024-03-08T06:15:30.640Z,491.00
2024-03-08T06:16:30.646Z,493.00
2024-03-08T06:17:30.716Z,493.00
2024-03-08T06:18:30.718Z,492.00
2024-03-08T06:19:30.667Z,496.00
2024-03-08T06:20:30.721Z,498.00
2024-03-08T06:21:30.686Z,502.00
2024-03-08T06:22:30.677Z,503.00
2024-03-08T06:23:30.688Z,504.00
2024-03-08T06:24:30.677Z,505.00
2024-03-08T06:25:30.706Z,508.00
2024-03-08T06:26:31.451Z,510.00
2024-03-08T06:27:30.711Z,507.00
2024-03-08T06:28:30.708Z,506.00
2024-03-08T06:29:30.716Z,505.00
2024-03-08T06:30:30.704Z,504.00
2024-03-08T06:31:30.670Z,506.00
2024-03-08T06:32:30.726Z,504.00
2024-03-08T06:33:30.811Z,505.00
2024-03-08T06:34:30.659Z,523.00
2024-03-08T06:35:30.656Z,555.00
2024-03-08T06:36:30.631Z,562.00
2024-03-08T06:37:30.623Z,571.00
2024-03-08T06:38:30.667Z,617.00
2024-03-08T06:39:30.601Z,613.00
2024-03-08T06:40:30.613Z,622.00
2024-03-08T06:41:30.621Z,630.00
2024-03-08T06:42:30.584Z,643.00
2024-03-08T06:43:30.591Z,663.00
2024-03-08T06:44:30.671Z,680.00
2024-03-08T06:45:30.621Z,701.00
2024-03-08T06:46:30.647Z,729.00
2024-03-08T06:47:30.788Z,742.00
2024-03-08T06:48:30.891Z,756.00
2024-03-08T06:49:30.790Z,769.00
2024-03-08T06:50:30.842Z,789.00
2024-03-08T06:51:30.779Z,800.00
2024-03-08T06:52:30.897Z,819.00
2024-03-08T06:53:30.841Z,884.00
2024-03-08T06:54:30.786Z,873.00
2024-03-08T06:55:30.809Z,875.00
2024-03-08T06:56:30.824Z,871.00
2024-03-08T06:57:30.811Z,826.00
2024-03-08T06:58:30.796Z,806.00
2024-03-08T06:59:30.836Z,810.00
2024-03-08T07:00:30.887Z,822.00
2024-03-08T07:01:30.883Z,810.00
2024-03-08T07:02:30.894Z,797.00
2024-03-08T07:03:30.930Z,794.00
2024-03-08T07:04:30.829Z,782.00
2024-03-08T07:05:32.142Z,763.00
2024-03-08T07:06:30.853Z,774.00
2024-03-08T07:07:30.917Z,835.00
2024-03-08T07:08:30.977Z,843.00
2024-03-08T07:09:30.954Z,850.00
2024-03-08T07:10:30.930Z,876.00
2024-03-08T07:11:31.008Z,902.00
2024-03-08T07:12:30.930Z,916.00
2024-03-08T07:13:31.002Z,921.00
2024-03-08T07:14:30.937Z,935.00
2024-03-08T07:15:30.885Z,947.00
2024-03-08T07:16:30.889Z,1012.00
2024-03-08T07:17:31.065Z,1017.00
2024-03-08T07:18:32.238Z,1018.00
2024-03-08T07:19:31.044Z,1026.00
2024-03-08T07:20:31.036Z,1041.00
2024-03-08T07:21:31.004Z,1049.00
2024-03-08T07:22:30.990Z,1052.00
2024-03-08T07:23:31.035Z,1055.00
2024-03-08T07:24:31.009Z,1062.00
2024-03-08T07:25:30.957Z,1071.00
2024-03-08T07:26:31.055Z,1083.00
2024-03-08T07:27:31.028Z,1095.00
2024-03-08T07:28:30.958Z,1102.00
2024-03-08T07:29:30.989Z,1102.00
2024-03-08T07:30:30.969Z,1115.00
2024-03-08T07:31:30.940Z,1142.00
2024-03-08T07:32:31.050Z,1157.00
2024-03-08T07:33:31.015Z,1163.00
2024-03-08T07:34:30.915Z,1169.00
2024-03-08T07:35:30.978Z,1175.00
2024-03-08T07:36:30.917Z,1183.00
2024-03-08T07:37:30.876Z,1183.00
2024-03-08T07:38:30.914Z,1179.00
2024-03-08T07:39:30.914Z,1175.00
2024-03-08T07:40:30.927Z,1177.00
2024-03-08T07:41:30.972Z,1177.00
2024-03-08T07:42:30.984Z,1019.00
2024-03-08T07:43:31.023Z,863.00
2024-03-08T07:44:31.075Z,876.00
2024-03-08T07:45:31.068Z,940.00
2024-03-08T07:46:32.484Z,971.00
2024-03-08T07:47:31.209Z,992.00
2024-03-08T07:48:31.272Z,1012.00
2024-03-08T07:49:31.251Z,1000.00
2024-03-08T07:50:31.308Z,965.00
2024-03-08T07:51:31.260Z,926.00
2024-03-08T07:52:31.314Z,898.00
2024-03-08T07:53:31.419Z,875.00
2024-03-08T07:54:31.464Z,860.00
2024-03-08T07:55:31.471Z,849.00
2024-03-08T07:56:31.529Z,846.00
2024-03-08T07:57:31.512Z,840.00
2024-03-08T07:58:32.959Z,832.00
2024-03-08T07:59:31.549Z,838.00
2024-03-08T08:00:31.548Z,832.00
2024-03-08T08:01:31.608Z,820.00
2024-03-08T08:02:32.877Z,827.00
2024-03-08T08:03:31.659Z,827.00
2024-03-08T08:04:31.713Z,835.00
2024-03-08T08:05:31.662Z,847.00
2024-03-08T08:06:31.631Z,854.00
2024-03-08T08:07:31.648Z,861.00
2024-03-08T08:08:31.625Z,866.00
2024-03-08T08:09:31.637Z,869.00
2024-03-08T08:10:31.635Z,872.00
2024-03-08T08:11:31.721Z,874.00
2024-03-08T08:12:31.621Z,880.00
2024-03-08T08:13:31.684Z,885.00
2024-03-08T08:14:31.628Z,884.00
2024-03-08T08:15:31.643Z,883.00
2024-03-08T08:16:31.598Z,889.00
2024-03-08T08:17:31.599Z,890.00
2024-03-08T08:18:31.589Z,894.00
2024-03-08T08:19:31.575Z,890.00
2024-03-08T08:20:31.571Z,887.00
2024-03-08T08:21:31.564Z,888.00
2024-03-08T08:22:31.587Z,891.00
2024-03-08T08:23:31.531Z,894.00
2024-03-08T08:24:31.531Z,896.00
2024-03-08T08:25:31.582Z,899.00
2024-03-08T08:26:33.186Z,901.00
2024-03-08T08:27:31.505Z,902.00
2024-03-08T08:28:31.525Z,902.00
2024-03-08T08:29:31.493Z,907.00
2024-03-08T08:30:31.478Z,913.00
2024-03-08T08:31:31.503Z,883.00
2024-03-08T08:32:31.493Z,891.00
2024-03-08T08:33:31.463Z,899.00
2024-03-08T08:34:31.468Z,903.00
2024-03-08T08:35:31.678Z,944.00
2024-03-08T08:36:31.463Z,931.00
2024-03-08T08:37:31.509Z,937.00
2024-03-08T08:38:31.433Z,973.00
2024-03-08T08:39:31.428Z,981.00
2024-03-08T08:40:31.488Z,987.00
2024-03-08T08:41:31.418Z,1017.00
2024-03-08T08:42:31.405Z,1030.00
2024-03-08T08:43:31.437Z,1117.00
2024-03-08T08:44:31.453Z,1112.00
2024-03-08T08:45:31.431Z,1122.00
2024-03-08T08:46:31.395Z,1163.00
2024-03-08T08:47:31.479Z,1201.00
2024-03-08T08:48:31.374Z,1234.00
2024-03-08T08:49:31.375Z,1251.00
2024-03-08T08:50:31.330Z,1264.00
2024-03-08T08:51:31.428Z,1268.00
2024-03-08T08:52:31.346Z,1306.00
2024-03-08T08:53:31.340Z,1327.00
2024-03-08T08:54:31.330Z,1334.00
2024-03-08T08:55:31.400Z,1348.00
2024-03-08T08:56:31.280Z,1357.00
2024-03-08T08:57:31.289Z,1368.00
2024-03-08T08:58:31.292Z,1379.00
2024-03-08T08:59:31.244Z,1397.00
2024-03-08T09:00:31.253Z,1411.00
2024-03-08T09:01:31.275Z,1427.00
2024-03-08T09:02:31.406Z,1469.00
2024-03-08T09:03:31.231Z,1477.00
2024-03-08T09:04:31.289Z,1492.00
2024-03-08T09:05:31.214Z,1504.00
2024-03-08T09:06:31.198Z,1517.00
2024-03-08T09:07:31.401Z,1543.00
2024-03-08T09:08:33.638Z,1591.00
2024-03-08T09:09:31.204Z,1608.00
2024-03-08T09:10:31.812Z,1618.00
2024-03-08T09:11:31.301Z,1622.00
2024-03-08T09:12:31.164Z,1627.00
2024-03-08T09:13:33.252Z,1635.00
2024-03-08T09:14:31.154Z,1645.00
2024-03-08T09:15:31.150Z,1658.00
2024-03-08T09:16:31.238Z,1711.00
2024-03-08T09:17:31.224Z,1729.00
2024-03-08T09:18:31.118Z,1755.00
2024-03-08T09:19:31.183Z,1783.00
2024-03-08T09:20:31.120Z,1802.00
2024-03-08T09:21:31.103Z,1806.00
2024-03-08T09:22:31.170Z,1819.00
2024-03-08T09:23:31.144Z,1828.00
2024-03-08T09:24:31.094Z,1842.00
2024-03-08T09:25:31.130Z,1863.00
2024-03-08T09:26:31.211Z,1885.00
2024-03-08T09:27:31.077Z,1905.00
2024-03-08T09:28:31.146Z,1918.00
2024-03-08T09:29:31.101Z,1921.00
2024-03-08T09:30:31.114Z,1927.00
2024-03-08T09:31:31.100Z,1932.00
2024-03-08T09:32:31.077Z,1926.00
2024-03-08T09:33:32.221Z,1899.00
2024-03-08T09:34:37.271Z,1877.00
2024-03-08T09:35:32.091Z,1857.00
2024-03-08T09:36:31.049Z,1829.00
2024-03-08T09:37:31.056Z,1784.00
2024-03-08T09:38:31.021Z,1784.00
2024-03-08T09:39:32.052Z,1761.00
2024-03-08T09:40:31.005Z,1735.00
2024-03-08T09:41:31.075Z,1723.00
2024-03-08T09:42:31.026Z,1708.00
2024-03-08T09:43:31.129Z,1695.00
2024-03-08T09:44:31.032Z,1683.00
2024-03-08T09:45:31.004Z,1662.00
2024-03-08T09:46:31.026Z,1672.00
2024-03-08T09:47:31.037Z,1696.00
2024-03-08T09:48:31.018Z,1696.00
2024-03-08T09:49:31.085Z,1683.00
2024-03-08T09:50:30.993Z,1678.00
2024-03-08T09:51:30.974Z,1670.00
2024-03-08T09:52:31.002Z,1669.00
2024-03-08T09:53:30.948Z,1662.00
2024-03-08T09:54:30.947Z,1638.00
2024-03-08T09:55:30.943Z,1607.00
2024-03-08T09:56:30.975Z,1594.00
2024-03-08T09:57:31.069Z,1590.00
2024-03-08T09:58:30.994Z,1574.00
2024-03-08T09:59:30.961Z,1552.00
2024-03-08T10:00:31.075Z,1540.00
2024-03-08T10:01:31.092Z,1534.00
2024-03-08T10:02:31.133Z,1524.00
2024-03-08T10:03:30.961Z,1511.00
2024-03-08T10:04:31.004Z,1500.00
2024-03-08T10:05:30.946Z,1481.00
2024-03-08T10:06:30.979Z,1469.00
2024-03-08T10:07:31.014Z,1442.00
2024-03-08T10:08:31.000Z,1428.00
2024-03-08T10:09:30.935Z,1398.00
2024-03-08T10:10:30.952Z,1394.00
2024-03-08T10:11:30.977Z,1382.00
2024-03-08T10:12:30.889Z,1353.00
2024-03-08T10:13:30.931Z,1278.00
2024-03-08T10:14:30.862Z,1289.00
2024-03-08T10:15:30.851Z,1290.00
2024-03-08T10:16:30.850Z,1282.00
2024-03-08T10:17:30.810Z,1247.00
2024-03-08T10:18:30.790Z,1224.00
2024-03-08T10:19:30.804Z,1215.00
2024-03-08T10:20:30.753Z,1212.00
2024-03-08T10:21:30.726Z,1205.00
2024-03-08T10:22:30.768Z,1198.00
2024-03-08T10:23:30.748Z,1172.00
2024-03-08T10:24:30.693Z,1173.00
2024-03-08T10:25:30.682Z,1162.00
2024-03-08T10:26:30.649Z,1154.00
2024-03-08T10:27:30.631Z,1148.00
2024-03-08T10:28:30.632Z,1126.00
2024-03-08T10:29:30.621Z,1116.00
2024-03-08T10:30:30.571Z,1104.00
2024-03-08T10:31:30.564Z,1099.00
2024-03-08T10:32:30.536Z,1094.00
2024-03-08T10:33:30.536Z,1091.00
2024-03-08T10:34:30.555Z,1088.00
2024-03-08T10:35:30.587Z,1082.00
2024-03-08T10:36:30.605Z,1072.00
2024-03-08T10:37:30.691Z,1068.00
2024-03-08T10:38:30.690Z,1062.00
2024-03-08T10:39:30.701Z,1055.00
2024-03-08T10:40:30.796Z,1049.00
2024-03-08T10:41:30.766Z,1042.00
2024-03-08T10:42:30.801Z,1038.00
2024-03-08T10:43:30.887Z,1034.00
2024-03-08T10:44:30.865Z,1026.00
2024-03-08T10:45:31.038Z,1020.00
2024-03-08T10:46:30.931Z,1017.00
2024-03-08T10:47:30.924Z,1016.00
2024-03-08T10:48:31.215Z,1011.00
2024-03-08T10:49:30.909Z,1006.00
2024-03-08T10:50:30.842Z,1004.00
2024-03-08T10:51:30.845Z,1000.00
2024-03-08T10:52:30.835Z,990.00
2024-03-08T10:53:30.833Z,980.00
2024-03-08T10:54:30.820Z,978.00
2024-03-08T10:55:30.857Z,973.00
2024-03-08T10:56:30.802Z,973.00
2024-03-08T10:57:30.789Z,976.00
2024-03-08T10:58:30.838Z,978.00
2024-03-08T10:59:30.801Z,979.00
2024-03-08T11:00:30.770Z,977.00
2024-03-08T11:01:30.862Z,974.00
2024-03-08T11:02:30.855Z,972.00
2024-03-08T11:03:30.725Z,970.00
2024-03-08T11:04:30.791Z,972.00
2024-03-08T11:05:30.693Z,971.00
2024-03-08T11:06:30.686Z,968.00
2024-03-08T11:07:30.699Z,965.00
2024-03-08T11:08:30.654Z,961.00
2024-03-08T11:09:30.800Z,955.00
2024-03-08T11:10:30.710Z,955.00
2024-03-08T11:11:34.042Z,952.00
2024-03-08T11:12:31.145Z,948.00
2024-03-08T11:13:30.693Z,950.00
2024-03-08T11:14:30.653Z,950.00
2024-03-08T11:15:30.648Z,948.00
2024-03-08T11:16:30.635Z,944.00
2024-03-08T11:17:30.636Z,942.00
2024-03-08T11:18:30.592Z,940.00
2024-03-08T11:19:30.652Z,939.00
2024-03-08T11:20:30.563Z,939.00
2024-03-08T11:21:30.575Z,937.00
2024-03-08T11:22:30.558Z,937.00
2024-03-08T11:23:30.602Z,936.00
2024-03-08T11:24:30.549Z,935.00
2024-03-08T11:25:30.561Z,934.00
2024-03-08T11:26:30.480Z,934.00
2024-03-08T11:27:30.468Z,933.00
2024-03-08T11:28:30.483Z,927.00
2024-03-08T11:29:30.475Z,924.00
2024-03-08T11:30:30.450Z,927.00
2024-03-08T11:31:30.458Z,925.00
2024-03-08T11:32:30.445Z,923.00
2024-03-08T11:33:30.416Z,922.00
2024-03-08T11:34:30.411Z,923.00
2024-03-08T11:35:30.385Z,924.00
2024-03-08T11:36:30.386Z,927.00
2024-03-08T11:37:30.383Z,923.00
2024-03-08T11:38:30.344Z,918.00
2024-03-08T11:39:30.323Z,919.00
2024-03-08T11:40:30.356Z,921.00
2024-03-08T11:41:30.324Z,923.00
2024-03-08T11:42:30.345Z,956.00
2024-03-08T11:43:30.399Z,993.00
2024-03-08T11:44:30.370Z,1002.00
2024-03-08T11:45:30.392Z,1026.00
2024-03-08T11:46:30.428Z,1088.00
2024-03-08T11:47:30.932Z,1127.00
2024-03-08T11:48:30.504Z,1132.00
2024-03-08T11:49:30.476Z,1117.00
2024-03-08T11:50:30.449Z,1118.00
2024-03-08T11:51:30.488Z,1124.00
2024-03-08T11:52:30.531Z,1135.00
2024-03-08T11:53:30.553Z,1143.00
2024-03-08T11:54:30.554Z,1140.00
2024-03-08T11:55:30.613Z,1138.00
2024-03-08T11:56:30.558Z,1136.00
2024-03-08T11:57:30.573Z,1138.00
2024-03-08T11:58:30.634Z,1134.00
2024-03-08T11:59:30.603Z,1128.00
2024-03-08T12:00:30.531Z,1125.00
2024-03-08T12:01:30.662Z,1133.00
2024-03-08T12:02:30.545Z,1138.00
2024-03-08T12:03:30.511Z,1152.00
2024-03-08T12:04:30.545Z,1160.00
2024-03-08T12:05:30.502Z,1158.00
2024-03-08T12:06:30.495Z,1155.00
2024-03-08T12:07:30.503Z,1156.00
2024-03-08T12:08:30.470Z,1158.00
2024-03-08T12:09:30.449Z,1162.00
2024-03-08T12:10:30.599Z,1165.00
2024-03-08T12:11:33.511Z,1156.00
2024-03-08T12:12:30.420Z,1153.00
2024-03-08T12:13:30.491Z,1156.00
2024-03-08T12:14:30.399Z,1149.00
2024-03-08T12:15:30.392Z,1148.00
2024-03-08T12:16:30.444Z,1163.00
2024-03-08T12:17:30.410Z,1227.00
2024-03-08T12:18:30.394Z,1195.00
2024-03-08T12:19:30.393Z,1187.00
2024-03-08T12:20:30.342Z,1134.00
2024-03-08T12:21:30.353Z,1148.00
2024-03-08T12:22:30.362Z,1177.00
2024-03-08T12:23:30.326Z,1214.00
2024-03-08T12:24:30.309Z,1141.00